< < Back
Terminal Aerodrome Forecast


Current Version              Previous Versions:   1  2  3  4  5  6  7  8  9  

Terminal Aerodrome Forecast

797
FTUS42 KCHS 012200 AAC
TAFCHS
TAF AMD
KCHS 012253Z 0123/0218 17010KT P6SM -RA SCT050 BKN100
     FM012330 20005KT P6SM SCT025 BKN250=

Latest METAR

414
SAUS80 KWBC 021400 RRB
MTRCHS
METAR KCHS 021356Z 24004KT 10SM FEW035 SCT120 SCT250 31/23 A3009 RMK AO2
SLP189 T03060233


USA.gov is the U.S. government's official web portal to all federal, state and local government web resources and services.